Time;durP1;ratioP1;P1;durP2;ratioP2;P2;SDS_P1;SDS_P2;PMS_P1;PMS_P2;Temp;Humidity;BMP_temperature;BMP_pressure;BME280_temperature;BME280_humidity;BME280_pressure;Samples;Min_cycle;Max_cycle;Signal;HPM_P1;HPM_P2
2022/09/24 00:00:41;;;;;;;30.98;25.92;;;14.60;99.90;;;;;;5117460;27;20035;-83
2022/09/24 00:03:06;;;;;;;31.10;23.30;;;14.60;99.90;;;;;;5134159;27;20416;-83
2022/09/24 00:05:38;;;;;;;39.58;35.88;;;14.50;99.90;;;;;;5134862;27;20045;-83
2022/09/24 00:08:08;;;;;;;31.67;22.58;;;14.50;99.90;;;;;;5134805;27;20043;-83
2022/09/24 00:10:38;;;;;;;39.58;35.78;;;14.50;99.90;;;;;;5117144;27;20030;-83
2022/09/24 00:13:04;;;;;;;40.00;36.22;;;14.50;99.90;;;;;;5134373;27;20070;-83
2022/09/24 00:15:30;;;;;;;40.45;36.58;;;14.50;99.90;;;;;;5134422;27;20050;-83
2022/09/24 00:17:56;;;;;;;30.08;24.73;;;14.60;99.90;;;;;;5134080;27;20034;-83
2022/09/24 00:20:22;;;;;;;40.22;36.40;;;14.50;99.90;;;;;;5117477;27;20035;-83
2022/09/24 00:22:47;;;;;;;40.25;36.25;;;14.50;99.90;;;;;;5134323;27;20035;-83
2022/09/24 00:27:57;;;;;;;34.80;25.02;;;14.50;99.90;;;;;;5134376;27;20091;-83
2022/09/24 00:30:23;;;;;;;39.65;35.97;;;14.50;99.90;;;;;;5134430;27;20070;-83
2022/09/24 00:32:48;;;;;;;39.85;36.05;;;14.50;99.90;;;;;;5116582;27;20452;-83
2022/09/24 00:35:14;;;;;;;34.58;25.42;;;14.50;99.90;;;;;;5134402;27;20035;-83
2022/09/24 00:37:39;;;;;;;33.47;24.00;;;14.50;99.90;;;;;;5117610;27;20027;-83
2022/09/24 00:40:06;;;;;;;40.85;36.85;;;14.40;99.90;;;;;;5134216;27;20488;-83
2022/09/24 00:42:31;;;;;;;41.40;37.50;;;14.40;99.90;;;;;;5134147;27;20396;-83
2022/09/24 00:44:57;;;;;;;31.42;27.02;;;14.50;99.90;;;;;;5117035;27;20475;-83
2022/09/24 00:47:36;;;;;;;44.42;40.15;;;14.40;99.90;;;;;;5133956;27;20038;-83
2022/09/24 00:50:16;;;;;;;34.17;27.73;;;14.50;99.90;;;;;;5117115;27;20039;-83
2022/09/24 00:53:05;;;;;;;35.47;25.38;;;14.40;99.90;;;;;;5120495;27;20125;-83
2022/09/24 00:55:33;;;;;;;44.03;39.83;;;14.30;99.90;;;;;;5116503;27;20079;-82
2022/09/24 00:58:02;;;;;;;34.80;25.48;;;14.30;99.90;;;;;;5116273;27;20126;-83
2022/09/24 01:00:29;;;;;;;43.65;39.42;;;14.30;99.90;;;;;;5116635;27;20074;-83
2022/09/24 01:03:00;;;;;;;35.05;27.83;;;14.40;99.90;;;;;;5096776;27;20031;-83
2022/09/24 01:05:27;;;;;;;35.10;22.90;;;14.30;99.90;;;;;;5100033;27;20063;-83
2022/09/24 01:07:53;;;;;;;43.90;39.65;;;14.20;99.90;;;;;;5117020;27;20087;-83
2022/09/24 01:10:47;;;;;;;42.88;38.78;;;14.30;99.90;;;;;;5116521;27;20035;-83
2022/09/24 01:13:40;;;;;;;32.83;25.30;;;14.30;99.90;;;;;;5099706;27;20096;-83
2022/09/24 01:16:30;;;;;;;34.03;22.23;;;14.30;99.90;;;;;;5117081;27;20488;-83
2022/09/24 01:19:39;;;;;;;44.28;40.05;;;14.20;99.90;;;;;;5117089;27;20605;-83
2022/09/24 01:22:41;;;;;;;34.72;26.40;;;14.30;99.90;;;;;;5116664;27;20097;-83
2022/09/24 01:25:35;;;;;;;45.67;40.92;;;14.30;99.90;;;;;;5116486;27;20074;-83
2022/09/24 01:28:06;;;;;;;33.67;26.48;;;14.30;99.90;;;;;;5099641;27;20113;-83
2022/09/24 01:30:37;;;;;;;34.85;24.45;;;14.30;99.90;;;;;;5099367;27;20129;-83
2022/09/24 01:33:07;;;;;;;45.30;40.70;;;14.20;99.90;;;;;;5099042;27;20405;-83
2022/09/24 01:35:41;;;;;;;44.90;40.28;;;14.20;99.90;;;;;;5116678;27;20051;-83
2022/09/24 01:38:12;;;;;;;34.53;27.48;;;14.30;99.90;;;;;;5099626;27;20042;-83
2022/09/24 01:40:38;;;;;;;46.08;41.60;;;14.30;99.90;;;;;;5099057;27;20043;-83
2022/09/24 01:43:07;;;;;;;44.92;40.53;;;14.30;99.90;;;;;;5116217;27;20447;-83
2022/09/24 01:45:36;;;;;;;35.53;27.80;;;14.30;99.90;;;;;;5116535;27;20424;-83
2022/09/24 01:48:03;;;;;;;35.03;25.58;;;14.30;99.90;;;;;;5134636;27;20392;-83
2022/09/24 01:50:37;;;;;;;37.63;29.27;;;14.30;99.90;;;;;;5116342;27;20519;-83
2022/09/24 01:53:26;;;;;;;36.47;26.23;;;14.20;99.90;;;;;;5099081;27;20035;-83
2022/09/24 01:56:00;;;;;;;45.90;41.30;;;14.20;99.90;;;;;;5098752;27;20050;-83
2022/09/24 01:58:34;;;;;;;44.22;39.83;;;14.30;99.90;;;;;;5116181;27;20369;-83
2022/09/24 02:01:09;;;;;;;38.17;25.35;;;14.30;99.90;;;;;;5115536;27;20043;-83
2022/09/24 02:03:42;;;;;;;44.40;40.15;;;14.20;99.90;;;;;;5099178;27;20042;-83
2022/09/24 02:06:22;;;;;;;45.78;41.30;;;14.30;99.90;;;;;;5116037;27;20046;-83
2022/09/24 02:08:48;;;;;;;43.50;39.13;;;14.30;99.90;;;;;;5098374;27;20073;-82
2022/09/24 02:11:23;;;;;;;36.03;26.58;;;14.30;99.90;;;;;;5115506;27;20039;-83
2022/09/24 02:14:02;;;;;;;34.95;25.38;;;14.20;99.90;;;;;;5115705;27;20031;-83
2022/09/24 02:16:35;;;;;;;38.72;25.35;;;14.20;99.90;;;;;;5098539;27;20043;-83
2022/09/24 02:19:04;;;;;;;46.40;41.88;;;14.10;99.90;;;;;;5098551;27;20478;-83
2022/09/24 02:21:32;;;;;;;38.60;29.23;;;14.20;99.90;;;;;;5098557;27;20473;-83
2022/09/24 02:24:06;;;;;;;47.53;42.83;;;14.20;99.90;;;;;;5115336;27;20070;-83
2022/09/24 02:26:32;;;;;;;46.33;41.72;;;14.20;99.90;;;;;;5098748;27;20137;-83
2022/09/24 02:28:58;;;;;;;34.88;26.23;;;14.20;99.90;;;;;;5098578;27;20091;-83
2022/09/24 02:31:29;;;;;;;46.42;41.80;;;14.20;99.90;;;;;;5097616;27;20126;-83
2022/09/24 02:36:43;;;;;;;39.92;30.08;;;14.20;99.90;;;;;;5115407;27;20070;-83
2022/09/24 02:39:08;;;;;;;48.33;43.70;;;14.20;99.90;;;;;;5114998;27;20460;-83
2022/09/24 02:41:35;;;;;;;38.40;29.73;;;14.20;99.90;;;;;;5114829;27;20039;-83
2022/09/24 02:44:01;;;;;;;48.20;43.47;;;14.20;99.90;;;;;;5098230;27;20043;-83
2022/09/24 02:46:27;;;;;;;40.72;30.52;;;14.20;99.90;;;;;;5097883;27;20491;-83
2022/09/24 02:48:52;;;;;;;49.95;44.88;;;14.20;99.90;;;;;;5115054;27;20039;-83
2022/09/24 02:51:18;;;;;;;42.08;29.92;;;14.20;99.90;;;;;;5097680;27;20144;-83
2022/09/24 02:53:43;;;;;;;39.08;28.30;;;14.20;99.90;;;;;;5114769;27;20031;-83
2022/09/24 02:56:10;;;;;;;50.90;45.88;;;14.10;99.90;;;;;;5115244;27;20393;-83
2022/09/24 02:58:36;;;;;;;50.08;45.22;;;14.10;99.90;;;;;;5114762;27;20038;-83
2022/09/24 03:01:04;;;;;;;38.53;28.58;;;14.20;99.90;;;;;;5097443;27;20492;-83
2022/09/24 03:03:29;;;;;;;42.75;31.48;;;14.10;99.90;;;;;;5115140;27;20047;-83
2022/09/24 03:05:55;;;;;;;51.75;46.55;;;14.10;99.90;;;;;;5098068;27;20493;-83
2022/09/24 03:08:23;;;;;;;49.47;44.67;;;14.20;99.90;;;;;;5114780;27;20039;-83
2022/09/24 03:10:49;;;;;;;42.45;32.47;;;14.20;99.90;;;;;;5097451;27;20208;-83
2022/09/24 03:13:18;;;;;;;41.17;29.67;;;14.20;99.90;;;;;;5113980;27;20031;-83
2022/09/24 03:15:44;;;;;;;54.40;48.97;;;14.20;99.90;;;;;;5097338;27;20118;-83
2022/09/24 03:18:10;;;;;;;41.65;30.45;;;14.20;99.90;;;;;;5097749;27;20074;-83
2022/09/24 03:20:36;;;;;;;50.10;45.10;;;14.20;99.90;;;;;;5097711;27;20523;-83
2022/09/24 03:23:01;;;;;;;52.38;47.30;;;14.30;99.90;;;;;;5113890;27;20041;-83
2022/09/24 03:25:27;;;;;;;50.05;45.25;;;14.30;99.90;;;;;;5114810;27;20121;-83
2022/09/24 03:27:52;;;;;;;50.67;45.78;;;14.30;99.90;;;;;;5097254;27;20067;-83
2022/09/24 03:33:02;;;;;;;50.05;45.05;;;14.30;99.90;;;;;;5114140;27;20051;-83
2022/09/24 03:35:28;;;;;;;50.70;45.65;;;14.30;99.90;;;;;;5114352;27;20031;-83
2022/09/24 03:37:53;;;;;;;52.47;47.22;;;14.30;99.90;;;;;;5114135;27;20091;-83
2022/09/24 03:40:19;;;;;;;42.45;30.05;;;14.30;99.90;;;;;;5114004;28;20058;-83
2022/09/24 03:42:44;;;;;;;43.45;30.13;;;14.30;99.90;;;;;;5113942;27;20074;-83
2022/09/24 03:45:10;;;;;;;42.17;33.67;;;14.30;99.90;;;;;;5096926;28;20118;-83
2022/09/24 03:47:36;;;;;;;41.40;31.65;;;14.20;99.90;;;;;;5114481;28;20125;-83
2022/09/24 03:50:02;;;;;;;49.78;45.08;;;14.20;99.90;;;;;;5114390;28;20691;-83
2022/09/24 03:52:28;;;;;;;52.47;47.40;;;14.20;99.90;;;;;;5113457;28;20135;-83
2022/09/24 03:54:54;;;;;;;52.15;46.90;;;14.30;99.90;;;;;;5097066;28;20481;-83
2022/09/24 03:57:20;;;;;;;49.80;45.10;;;14.30;99.90;;;;;;5113936;28;20035;-83
2022/09/24 03:59:46;;;;;;;40.17;27.33;;;14.30;99.90;;;;;;5097186;28;20042;-83
2022/09/24 04:02:11;;;;;;;37.67;29.67;;;14.30;99.90;;;;;;5114069;28;20039;-83
2022/09/24 04:04:37;;;;;;;47.92;43.33;;;14.20;99.90;;;;;;5114159;28;20496;-83
2022/09/24 04:07:03;;;;;;;42.08;30.60;;;14.30;99.90;;;;;;5096823;28;20164;-83
2022/09/24 04:09:29;;;;;;;47.88;43.17;;;14.30;99.90;;;;;;5114076;28;20126;-83
2022/09/24 04:11:55;;;;;;;39.75;32.10;;;14.30;99.90;;;;;;5113966;28;20453;-83
2022/09/24 04:14:21;;;;;;;51.70;46.55;;;14.30;99.90;;;;;;5113634;28;20503;-83
2022/09/24 04:16:47;;;;;;;40.20;30.33;;;14.30;99.90;;;;;;5096885;28;20127;-83
2022/09/24 04:19:14;;;;;;;48.42;43.90;;;14.30;99.90;;;;;;5096886;28;20042;-83
2022/09/24 04:21:41;;;;;;;49.70;44.90;;;14.30;99.90;;;;;;5096529;28;20047;-83
2022/09/24 04:24:07;;;;;;;37.22;28.13;;;14.30;99.90;;;;;;5113719;28;20175;-83
2022/09/24 04:26:33;;;;;;;47.13;42.53;;;14.30;99.90;;;;;;5099443;27;20125;-83
2022/09/24 04:28:58;;;;;;;39.22;27.60;;;14.30;99.90;;;;;;5117488;27;20043;-83
2022/09/24 04:31:26;;;;;;;43.97;39.92;;;14.30;99.90;;;;;;5117405;27;20047;-83
2022/09/24 04:33:52;;;;;;;38.42;29.42;;;14.30;99.90;;;;;;5117776;27;20130;-83
2022/09/24 04:36:18;;;;;;;46.15;41.80;;;14.30;99.90;;;;;;5100425;27;20039;-83
2022/09/24 04:38:45;;;;;;;34.78;27.48;;;14.30;99.90;;;;;;5117513;27;20043;-83
2022/09/24 04:41:11;;;;;;;37.80;27.73;;;14.30;99.90;;;;;;5100349;27;20043;-83
2022/09/24 04:43:37;;;;;;;45.20;40.88;;;14.30;99.90;;;;;;5117462;27;20049;-83
2022/09/24 04:46:03;;;;;;;44.92;40.67;;;14.30;99.90;;;;;;5117688;27;20038;-83
2022/09/24 04:48:30;;;;;;;33.28;25.42;;;14.30;99.90;;;;;;5115764;27;20043;-83
2022/09/24 04:50:56;;;;;;;34.85;25.27;;;14.30;99.90;;;;;;5116824;27;20041;-83
2022/09/24 04:53:22;;;;;;;43.53;39.38;;;14.20;99.90;;;;;;5117253;27;20039;-83
2022/09/24 04:55:48;;;;;;;41.50;37.30;;;14.30;99.90;;;;;;5100150;27;20043;-83
2022/09/24 04:58:14;;;;;;;41.58;37.47;;;14.30;99.90;;;;;;5117166;27;20126;-83
2022/09/24 05:00:41;;;;;;;32.67;25.65;;;14.40;99.90;;;;;;5100055;27;20043;-83
2022/09/24 05:03:06;;;;;;;37.22;33.65;;;14.30;99.90;;;;;;5117292;27;20043;-83
2022/09/24 05:05:33;;;;;;;40.17;36.38;;;14.30;99.90;;;;;;5120138;27;20035;-82
2022/09/24 05:08:00;;;;;;;31.23;24.30;;;14.30;99.90;;;;;;5124084;27;20516;-83
2022/09/24 05:10:27;;;;;;;39.15;35.35;;;14.30;99.90;;;;;;5111014;27;20054;-83
2022/09/24 05:12:53;;;;;;;39.45;35.47;;;14.30;99.90;;;;;;5124637;27;20058;-83
2022/09/24 05:15:19;;;;;;;32.30;23.73;;;14.30;99.90;;;;;;5116776;27;20471;-83
2022/09/24 05:17:45;;;;;;;40.80;36.63;;;14.30;99.90;;;;;;5116756;27;20041;-83
2022/09/24 05:20:10;;;;;;;40.70;36.60;;;14.30;99.90;;;;;;5099753;27;20032;-83
2022/09/24 05:22:48;;;;;;;30.77;23.05;;;14.30;99.90;;;;;;5099242;27;20104;-83
2022/09/24 05:25:15;;;;;;;33.80;21.27;;;14.20;99.90;;;;;;5116780;27;20050;-83
2022/09/24 05:27:52;;;;;;;39.00;35.08;;;14.10;99.90;;;;;;5116603;27;20039;-83
2022/09/24 05:30:19;;;;;;;32.10;23.48;;;14.20;99.90;;;;;;5100039;27;20408;-83
2022/09/24 05:32:48;;;;;;;40.75;36.70;;;14.20;99.90;;;;;;5098852;27;20040;-83
2022/09/24 05:35:14;;;;;;;41.03;36.83;;;14.20;99.90;;;;;;5099446;27;20039;-83
2022/09/24 05:37:39;;;;;;;32.85;22.98;;;14.20;99.90;;;;;;5099253;27;20049;-83
2022/09/24 05:42:51;;;;;;;40.60;36.50;;;14.10;99.90;;;;;;5115884;27;20047;-83
2022/09/24 05:45:17;;;;;;;31.08;21.55;;;14.20;99.90;;;;;;5099458;27;20048;-83
2022/09/24 05:47:46;;;;;;;31.02;22.77;;;14.20;99.90;;;;;;5099216;27;20041;-83
2022/09/24 05:50:12;;;;;;;40.78;36.67;;;14.10;99.90;;;;;;5099089;27;20149;-83
2022/09/24 05:52:41;;;;;;;35.90;23.83;;;14.20;99.90;;;;;;5098753;27;20050;-83
2022/09/24 05:55:08;;;;;;;40.53;36.35;;;14.20;99.90;;;;;;5134670;27;20065;-83
2022/09/24 05:57:34;;;;;;;42.33;37.92;;;14.20;99.90;;;;;;5116023;27;20484;-83
2022/09/24 06:00:00;;;;;;;33.00;24.15;;;14.20;99.90;;;;;;5115917;27;20039;-83
2022/09/24 06:02:25;;;;;;;37.00;25.75;;;14.20;99.90;;;;;;5116049;27;20042;-83
2022/09/24 06:04:51;;;;;;;41.80;37.40;;;14.20;99.90;;;;;;5099108;27;20039;-83
2022/09/24 06:07:16;;;;;;;42.35;38.05;;;14.20;99.90;;;;;;5098785;27;20062;-83
2022/09/24 06:09:43;;;;;;;34.88;24.02;;;14.30;99.90;;;;;;5115855;27;20047;-83
2022/09/24 06:12:09;;;;;;;43.30;38.83;;;14.20;99.90;;;;;;5132635;27;20043;-83
2022/09/24 06:14:35;;;;;;;37.20;23.98;;;14.20;99.90;;;;;;5135907;27;20038;-83
2022/09/24 06:17:01;;;;;;;32.40;22.08;;;14.20;99.90;;;;;;5136356;27;20519;-83
2022/09/24 06:19:26;;;;;;;45.53;40.63;;;14.20;99.90;;;;;;5135674;27;20030;-83
2022/09/24 06:21:52;;;;;;;43.67;39.00;;;14.20;99.90;;;;;;5135818;27;20125;-83
2022/09/24 06:24:17;;;;;;;37.00;24.08;;;14.30;99.90;;;;;;5136309;27;20495;-83
2022/09/24 06:26:43;;;;;;;42.30;37.90;;;14.20;99.90;;;;;;5119189;27;20034;-83
2022/09/24 06:29:08;;;;;;;35.00;25.35;;;14.30;99.90;;;;;;5135669;27;20490;-83
2022/09/24 06:31:34;;;;;;;33.10;24.38;;;14.20;99.90;;;;;;5118555;27;20503;-83
2022/09/24 06:34:01;;;;;;;42.75;38.15;;;14.20;99.90;;;;;;5118527;27;20045;-83
2022/09/24 06:36:28;;;;;;;43.08;38.60;;;14.30;99.90;;;;;;5135852;27;20038;-83
2022/09/24 06:38:53;;;;;;;35.83;24.40;;;14.20;99.90;;;;;;5118331;27;20479;-83
2022/09/24 06:41:19;;;;;;;32.58;23.10;;;14.20;99.90;;;;;;5135121;27;20045;-83
2022/09/24 06:43:45;;;;;;;41.88;37.47;;;14.20;99.90;;;;;;5118538;27;20046;-83
2022/09/24 06:46:11;;;;;;;33.65;22.48;;;14.20;99.90;;;;;;5118632;27;20565;-82
2022/09/24 06:48:38;;;;;;;42.53;38.13;;;14.20;99.90;;;;;;5134990;27;20039;-82
2022/09/24 06:51:04;;;;;;;33.15;23.38;;;14.30;99.90;;;;;;5135233;27;20039;-82
2022/09/24 06:53:30;;;;;;;42.97;38.45;;;14.30;99.90;;;;;;5118378;27;20086;-82
2022/09/24 06:55:58;;;;;;;44.08;39.58;;;14.30;99.90;;;;;;5135624;27;20122;-82
2022/09/24 06:58:25;;;;;;;43.05;38.50;;;14.40;99.90;;;;;;5135067;27;20125;-82
2022/09/24 07:00:53;;;;;;;36.50;24.42;;;14.30;99.90;;;;;;5135179;27;20117;-82
2022/09/24 07:03:19;;;;;;;42.50;38.00;;;14.30;99.90;;;;;;5118335;27;20031;-82
2022/09/24 07:05:45;;;;;;;36.42;25.35;;;14.40;99.90;;;;;;5134995;27;20035;-82
2022/09/24 07:08:10;;;;;;;42.40;38.10;;;14.40;99.90;;;;;;5118437;27;20054;-82
2022/09/24 07:10:38;;;;;;;35.05;24.48;;;14.30;99.90;;;;;;5117973;27;20042;-82
2022/09/24 07:13:04;;;;;;;36.40;24.90;;;14.40;99.90;;;;;;5112120;27;20039;-82
2022/09/24 07:15:29;;;;;;;44.03;39.33;;;14.30;99.90;;;;;;5114682;27;20161;-82
2022/09/24 07:17:58;;;;;;;34.47;23.75;;;14.30;99.90;;;;;;5097793;27;20511;-82
2022/09/24 07:20:27;;;;;;;43.92;39.22;;;14.30;99.90;;;;;;5097212;27;20043;-82
2022/09/24 07:22:52;;;;;;;39.90;27.73;;;14.40;99.90;;;;;;5125082;27;20404;-82
2022/09/24 07:25:18;;;;;;;44.00;39.30;;;14.30;99.90;;;;;;5121983;27;20496;-83
2022/09/24 07:27:43;;;;;;;43.53;39.15;;;14.40;99.90;;;;;;5105586;27;20091;-82
2022/09/24 07:30:09;;;;;;;37.92;24.58;;;14.40;99.90;;;;;;5116458;27;20043;-82
2022/09/24 07:32:35;;;;;;;43.50;38.92;;;14.40;99.90;;;;;;5114017;27;20127;-82
2022/09/24 07:35:01;;;;;;;43.75;39.15;;;14.40;99.90;;;;;;5096914;27;20122;-82
2022/09/24 07:37:26;;;;;;;36.05;25.92;;;14.40;99.90;;;;;;5125709;27;20038;-82
2022/09/24 07:39:52;;;;;;;44.63;39.92;;;14.40;99.90;;;;;;5134334;27;20042;-83
2022/09/24 07:42:18;;;;;;;38.25;25.77;;;14.30;99.90;;;;;;5133081;27;20431;-82
2022/09/24 07:44:44;;;;;;;38.90;26.90;;;14.30;99.90;;;;;;5134574;27;20060;-82
2022/09/24 07:47:10;;;;;;;44.28;39.58;;;14.30;99.90;;;;;;5135050;27;20046;-82
2022/09/24 07:49:37;;;;;;;34.50;23.33;;;14.30;99.90;;;;;;5134275;27;20045;-82
2022/09/24 07:52:03;;;;;;;38.15;25.33;;;14.30;99.90;;;;;;5145971;27;20035;-82
2022/09/24 07:54:30;;;;;;;44.85;40.13;;;14.30;99.90;;;;;;5116490;27;20495;-82
2022/09/24 07:56:56;;;;;;;47.47;42.38;;;14.30;99.90;;;;;;5134346;27;20492;-82
2022/09/24 07:59:21;;;;;;;38.47;27.45;;;14.40;99.90;;;;;;5135102;27;20061;-82
2022/09/24 08:01:47;;;;;;;37.80;24.58;;;14.30;99.90;;;;;;5121219;27;20496;-82
2022/09/24 08:04:12;;;;;;;48.20;42.20;;;14.30;99.90;;;;;;5137153;27;20038;-82
2022/09/24 08:06:38;;;;;;;42.25;27.20;;;14.30;99.90;;;;;;5139044;27;20404;-82
2022/09/24 08:09:03;;;;;;;37.95;24.70;;;14.30;99.90;;;;;;5138327;27;20504;-82
2022/09/24 08:11:29;;;;;;;45.30;40.40;;;14.30;99.90;;;;;;5138058;27;20035;-82
2022/09/24 08:13:56;;;;;;;46.28;41.05;;;14.30;99.90;;;;;;5138563;27;20042;-82
2022/09/24 08:16:22;;;;;;;38.15;26.35;;;14.30;99.90;;;;;;5138702;27;20038;-82
2022/09/24 08:18:48;;;;;;;46.63;40.70;;;14.30;99.90;;;;;;5120907;27;20035;-82
2022/09/24 08:21:14;;;;;;;45.25;40.33;;;14.30;99.90;;;;;;5138450;27;20038;-82
2022/09/24 08:23:43;;;;;;;36.17;24.05;;;14.30;99.90;;;;;;5121409;27;20046;-82
2022/09/24 08:26:10;;;;;;;45.22;40.25;;;14.30;99.90;;;;;;5121009;27;20031;-82
2022/09/24 08:28:36;;;;;;;37.17;24.15;;;14.20;99.90;;;;;;5117957;27;20047;-82
2022/09/24 08:31:07;;;;;;;33.13;22.00;;;14.20;99.90;;;;;;5134561;27;20038;-81
2022/09/24 08:33:34;;;;;;;33.53;22.73;;;14.20;99.90;;;;;;5134188;27;20111;-82
2022/09/24 08:36:06;;;;;;;37.28;33.28;;;14.20;99.90;;;;;;5117501;27;20121;-82
2022/09/24 08:38:32;;;;;;;26.73;16.88;;;14.30;99.90;;;;;;5117721;27;20079;-82
2022/09/24 08:41:06;;;;;;;30.30;19.50;;;14.30;99.90;;;;;;5133977;27;20050;-82
2022/09/24 08:43:50;;;;;;;43.40;37.45;;;14.20;99.90;;;;;;5117583;27;20070;-82
2022/09/24 08:49:17;;;;;;;26.02;17.77;;;14.40;99.90;;;;;;5135587;27;20047;-81
2022/09/24 08:52:07;;;;;;;29.85;26.75;;;14.40;99.90;;;;;;5120587;27;20095;-82
2022/09/24 08:54:35;;;;;;;23.42;14.60;;;14.50;99.90;;;;;;5138032;27;20046;-82
2022/09/24 08:57:08;;;;;;;25.23;17.25;;;14.50;99.90;;;;;;5137501;27;20091;-82
2022/09/24 08:59:37;;;;;;;27.10;24.13;;;14.50;99.90;;;;;;5137722;27;20076;-82
2022/09/24 09:02:34;;;;;;;29.58;25.63;;;14.60;99.90;;;;;;5137800;27;20038;-82
2022/09/24 09:05:38;;;;;;;25.88;16.30;;;14.70;99.90;;;;;;5137440;27;20075;-82
2022/09/24 09:08:29;;;;;;;25.80;22.45;;;14.70;99.90;;;;;;5089165;27;20051;-82
2022/09/24 09:10:59;;;;;;;21.75;13.23;;;14.70;99.90;;;;;;5136394;27;20047;-82
2022/09/24 09:13:28;;;;;;;20.15;11.98;;;14.70;99.90;;;;;;5119132;27;20035;-82
2022/09/24 09:16:09;;;;;;;21.55;19.25;;;14.70;99.90;;;;;;5120354;27;20037;-82
2022/09/24 09:18:40;;;;;;;19.80;12.15;;;14.80;99.90;;;;;;5137142;27;20510;-81
2022/09/24 09:21:24;;;;;;;19.65;15.40;;;14.80;99.90;;;;;;5137459;27;20125;-82
2022/09/24 09:23:53;;;;;;;18.05;10.98;;;14.80;99.90;;;;;;5120344;27;20042;-82
2022/09/24 09:26:21;;;;;;;19.00;14.70;;;14.80;99.90;;;;;;5119852;27;20047;-82
2022/09/24 09:28:48;;;;;;;18.77;10.32;;;14.90;99.90;;;;;;5137010;27;20524;-82
2022/09/24 09:31:38;;;;;;;22.85;14.52;;;14.90;99.90;;;;;;5119641;27;20125;-82
2022/09/24 09:34:28;;;;;;;20.90;10.48;;;15.00;99.90;;;;;;5135127;27;20038;-81
2022/09/24 09:37:13;;;;;;;22.45;14.68;;;15.00;99.90;;;;;;5116490;27;20038;-81
2022/09/24 09:40:11;;;;;;;20.27;10.52;;;15.00;99.90;;;;;;5099802;27;20041;-81
2022/09/24 09:42:40;;;;;;;18.25;14.45;;;15.00;99.90;;;;;;5099238;27;20480;-82
2022/09/24 09:45:46;;;;;;;17.40;10.45;;;15.00;99.90;;;;;;5113662;27;20404;-82
2022/09/24 09:48:13;;;;;;;21.05;15.93;;;15.00;99.90;;;;;;5075211;27;20523;-82
2022/09/24 09:50:49;;;;;;;20.33;11.32;;;15.00;99.90;;;;;;5097469;27;20075;-82
2022/09/24 09:53:22;;;;;;;21.70;16.15;;;15.00;99.90;;;;;;5099044;27;20042;-82
2022/09/24 09:55:58;;;;;;;17.75;10.52;;;15.00;99.90;;;;;;5099263;27;20039;-82
2022/09/24 09:58:36;;;;;;;19.20;14.77;;;15.00;99.90;;;;;;5116041;27;20046;-82
2022/09/24 10:01:11;;;;;;;17.17;10.75;;;15.00;99.90;;;;;;5099014;27;20042;-82
2022/09/24 10:03:43;;;;;;;18.67;12.05;;;15.10;99.90;;;;;;5115699;27;20050;-82
2022/09/24 10:06:12;;;;;;;16.38;8.35;;;15.10;99.90;;;;;;5116241;27;20093;-82
2022/09/24 10:08:39;;;;;;;16.63;10.98;;;15.10;99.90;;;;;;5115882;27;20047;-82
2022/09/24 10:11:06;;;;;;;13.77;5.45;;;15.20;99.90;;;;;;5115380;27;20515;-82
2022/09/24 10:13:33;;;;;;;17.20;5.93;;;15.20;99.90;;;;;;5115992;27;20039;-82
2022/09/24 10:16:07;;;;;;;12.48;4.20;;;15.30;99.90;;;;;;5101369;27;20046;-82
2022/09/24 10:18:40;;;;;;;17.88;9.02;;;15.30;99.90;;;;;;5114647;27;20492;-82
2022/09/24 10:21:10;;;;;;;15.70;5.80;;;15.40;99.90;;;;;;5113750;27;20147;-82
2022/09/24 10:23:46;;;;;;;13.00;4.47;;;15.50;99.90;;;;;;5097632;27;20043;-82
2022/09/24 10:26:11;;;;;;;24.05;13.35;;;15.50;99.90;;;;;;5114033;27;20042;-82
2022/09/24 10:31:38;;;;;;;14.82;5.50;;;15.70;99.90;;;;;;5114774;27;20412;-82
2022/09/24 10:34:19;;;;;;;16.30;4.28;;;15.70;99.90;;;;;;5115460;27;20043;-82
2022/09/24 10:36:51;;;;;;;13.85;3.97;;;15.80;99.90;;;;;;5115706;27;20035;-82
2022/09/24 10:39:16;;;;;;;15.48;3.65;;;15.80;99.90;;;;;;5098086;27;20122;-82
2022/09/24 10:41:50;;;;;;;16.67;3.88;;;15.90;99.90;;;;;;5098298;27;20123;-82
2022/09/24 10:44:17;;;;;;;16.10;3.15;;;15.90;99.90;;;;;;5115262;27;20176;-81
2022/09/24 10:47:18;;;;;;;14.80;3.80;;;16.00;99.90;;;;;;5097919;27;20054;-82
2022/09/24 10:50:29;;;;;;;13.02;2.67;;;16.10;99.90;;;;;;5115248;27;20039;-82
2022/09/24 10:53:07;;;;;;;13.63;3.15;;;16.20;99.90;;;;;;5086056;27;20100;-82
2022/09/24 10:55:37;;;;;;;12.57;2.90;;;16.20;99.90;;;;;;5114930;27;20039;-82
2022/09/24 10:58:24;;;;;;;12.65;3.75;;;16.20;99.90;;;;;;5115324;27;20092;-82
2022/09/24 11:01:06;;;;;;;13.02;3.78;;;16.30;99.90;;;;;;5097602;27;20039;-82
2022/09/24 11:04:09;;;;;;;10.73;2.67;;;16.40;99.90;;;;;;5098077;27;20035;-82
2022/09/24 11:07:13;;;;;;;9.13;1.93;;;16.40;99.90;;;;;;5117296;27;20122;-82
2022/09/24 11:09:55;;;;;;;12.30;4.03;;;16.40;99.90;;;;;;5083878;27;20527;-82
2022/09/24 11:12:48;;;;;;;10.65;2.40;;;16.50;99.90;;;;;;5112908;27;20619;-82
2022/09/24 11:15:40;;;;;;;14.38;4.13;;;16.40;99.90;;;;;;5114687;27;20131;-82
2022/09/24 11:18:25;;;;;;;10.88;3.85;;;16.50;99.90;;;;;;5114851;27;20035;-82
2022/09/24 11:21:29;;;;;;;15.77;5.38;;;16.60;99.90;;;;;;5097287;27;20031;-82
2022/09/24 11:24:27;;;;;;;13.90;3.30;;;16.60;99.90;;;;;;5133129;27;20031;-82
2022/09/24 11:27:08;;;;;;;11.25;3.20;;;16.60;99.90;;;;;;5079912;27;20518;-82
2022/09/24 11:29:50;;;;;;;10.32;3.28;;;16.70;99.90;;;;;;5114569;27;20038;-82
2022/09/24 11:32:45;;;;;;;10.35;2.88;;;16.70;99.90;;;;;;5113549;27;20035;-82
2022/09/24 11:35:40;;;;;;;11.27;2.78;;;16.80;99.90;;;;;;5114148;27;20035;-82
2022/09/24 11:38:14;;;;;;;11.75;2.70;;;16.80;99.90;;;;;;5114430;27;20031;-82
2022/09/24 11:41:01;;;;;;;12.15;2.40;;;16.80;99.90;;;;;;5114079;27;20091;-82
2022/09/24 11:43:59;;;;;;;12.18;2.72;;;16.70;99.90;;;;;;5114196;27;20043;-82
2022/09/24 11:46:46;;;;;;;10.30;2.78;;;16.70;99.90;;;;;;5096864;28;20060;-82
2022/09/24 11:49:30;;;;;;;12.63;2.72;;;16.60;99.90;;;;;;5097481;28;20039;-82
2022/09/24 11:52:07;;;;;;;10.80;2.65;;;16.60;99.90;;;;;;5099221;27;20047;-82
2022/09/24 11:54:42;;;;;;;9.13;2.30;;;16.60;99.90;;;;;;5133695;27;20364;-82
2022/09/24 11:57:11;;;;;;;10.50;2.45;;;16.60;99.90;;;;;;5133924;27;20042;-82
2022/09/24 11:59:49;;;;;;;12.45;2.67;;;16.60;99.90;;;;;;5134633;27;20038;-82
2022/09/24 12:02:36;;;;;;;11.23;2.38;;;16.60;99.90;;;;;;5133758;27;20073;-82
2022/09/24 12:05:19;;;;;;;11.15;2.40;;;16.60;99.90;;;;;;5117513;27;20035;-82
2022/09/24 12:07:54;;;;;;;8.63;1.60;;;16.50;99.90;;;;;;5117298;27;20399;-82
2022/09/24 12:10:33;;;;;;;10.05;2.35;;;16.50;99.90;;;;;;5134688;27;20042;-82
2022/09/24 12:13:11;;;;;;;12.93;2.60;;;16.50;99.90;;;;;;5117124;27;20129;-82
2022/09/24 12:15:45;;;;;;;12.07;2.30;;;16.50;99.90;;;;;;5134301;27;20062;-82
2022/09/24 12:18:18;;;;;;;10.55;2.05;;;16.50;99.90;;;;;;5117591;27;20042;-82
2022/09/24 12:21:00;;;;;;;13.57;2.45;;;16.40;99.90;;;;;;5117339;27;20087;-82
2022/09/24 12:23:29;;;;;;;11.00;2.03;;;16.40;99.90;;;;;;5117141;27;20035;-82
2022/09/24 12:25:58;;;;;;;11.73;2.20;;;16.30;99.90;;;;;;5116617;28;20045;-82
2022/09/24 12:34:46;;;;;;;8.85;2.00;;;16.40;99.90;;;;;;5113150;28;20047;-82
2022/09/24 12:37:16;;;;;;;10.85;2.40;;;16.50;99.90;;;;;;5113019;28;20043;-82
2022/09/24 12:39:53;;;;;;;10.48;2.50;;;16.50;99.90;;;;;;5096096;28;20032;-82
2022/09/24 12:42:20;;;;;;;9.43;1.50;;;16.60;99.90;;;;;;5095955;28;20084;-82
2022/09/24 12:44:58;;;;;;;11.38;2.53;;;16.60;99.90;;;;;;5096259;28;20129;-82
2022/09/24 12:47:30;;;;;;;8.60;2.05;;;16.80;99.90;;;;;;5114938;27;20043;-82
2022/09/24 12:50:02;;;;;;;11.43;2.20;;;16.90;99.90;;;;;;5117032;27;20046;-82
2022/09/24 12:52:35;;;;;;;10.43;1.63;;;17.10;99.90;;;;;;5099481;27;20138;-82
2022/09/24 12:55:02;;;;;;;8.60;1.80;;;17.30;99.90;;;;;;5116974;27;20536;-82
2022/09/24 12:57:40;;;;;;;11.18;2.10;;;17.50;99.90;;;;;;5099684;27;20055;-82
2022/09/24 13:00:32;;;;;;;9.60;2.10;;;17.60;99.90;;;;;;5116401;27;20035;-82
2022/09/24 13:02:59;;;;;;;9.95;1.90;;;17.70;99.90;;;;;;5116838;27;20066;-82
2022/09/24 13:05:33;;;;;;;8.30;2.08;;;17.60;99.90;;;;;;5099702;27;20042;-82
2022/09/24 13:08:18;;;;;;;11.45;2.25;;;17.60;99.90;;;;;;5116605;27;20092;-82
2022/09/24 13:10:59;;;;;;;11.23;1.98;;;17.60;99.90;;;;;;5099289;27;20043;-82
2022/09/24 13:13:27;;;;;;;10.32;2.15;;;17.70;99.90;;;;;;5116670;27;20062;-82
2022/09/24 13:16:03;;;;;;;8.85;1.90;;;17.60;99.90;;;;;;5099085;27;20424;-82